Time;durP1;ratioP1;P1;durP2;ratioP2;P2;SDS_P1;SDS_P2;PMS_P1;PMS_P2;Temp;Humidity;BMP_temperature;BMP_pressure;BME280_temperature;BME280_humidity;BME280_pressure;Samples;Min_cycle;Max_cycle;Signal;HPM_P1;HPM_P2
2022/11/17 00:02:12;;;;;;;8.05;6.45;;;;;;;;;;4987893;28;20053;-74
2022/11/17 00:04:40;;;;;;;9.57;6.43;;;;;;;;;;4987995;28;20704;-78
2022/11/17 00:07:06;;;;;;;9.45;6.55;;;;;;;;;;5004561;28;20025;-76
2022/11/17 00:09:32;;;;;;;9.85;7.15;;;;;;;;;;5001424;28;20030;-75
2022/11/17 00:14:45;;;;;;;9.45;6.47;;;;;;;;;;5002359;28;20032;-75
2022/11/17 00:17:11;;;;;;;9.68;6.82;;;;;;;;;;5000460;28;20041;-75
2022/11/17 00:22:25;;;;;;;8.18;6.43;;;;;;;;;;5001205;28;20488;-75
2022/11/17 00:24:50;;;;;;;10.93;8.43;;;;;;;;;;4999603;28;20044;-75
2022/11/17 00:27:16;;;;;;;10.98;7.75;;;;;;;;;;4999624;28;20036;-75
2022/11/17 00:29:45;;;;;;;11.88;7.80;;;;;;;;;;5002826;28;20030;-75
2022/11/17 00:34:59;;;;;;;10.95;7.15;;;;;;;;;;5004091;28;20030;-74
2022/11/17 00:37:25;;;;;;;10.38;7.53;;;;;;;;;;4984070;28;20029;-74
2022/11/17 00:39:54;;;;;;;15.13;7.50;;;;;;;;;;4987453;28;20493;-74
2022/11/17 00:42:20;;;;;;;9.02;6.45;;;;;;;;;;4999091;28;20030;-75
2022/11/17 00:44:46;;;;;;;9.40;7.13;;;;;;;;;;4990264;28;20030;-75
2022/11/17 00:47:14;;;;;;;9.73;8.38;;;;;;;;;;5007244;28;20025;-74
2022/11/17 00:49:40;;;;;;;7.35;6.20;;;;;;;;;;5007750;28;20026;-75
2022/11/17 00:52:05;;;;;;;6.80;5.90;;;;;;;;;;4989795;28;20029;-74
2022/11/17 00:54:31;;;;;;;8.00;6.55;;;;;;;;;;5008604;28;20032;-75
2022/11/17 00:56:57;;;;;;;12.75;6.43;;;;;;;;;;5033563;22;20608;-82
2022/11/17 00:59:23;;;;;;;8.25;5.32;;;;;;;;;;5025248;28;20044;-81
2022/11/17 01:01:49;;;;;;;10.02;7.72;;;;;;;;;;5008706;28;20095;-81
2022/11/17 01:04:20;;;;;;;10.98;7.53;;;;;;;;;;5009500;28;20037;-81
2022/11/17 01:06:47;;;;;;;18.67;7.18;;;;;;;;;;5014896;28;20038;-82
2022/11/17 01:09:14;;;;;;;9.73;7.40;;;;;;;;;;5008850;28;20392;-81
2022/11/17 01:11:41;;;;;;;9.73;6.78;;;;;;;;;;4987139;28;20033;-81
2022/11/17 01:14:07;;;;;;;8.70;6.05;;;;;;;;;;4963630;28;20036;-81
2022/11/17 01:16:32;;;;;;;9.43;5.82;;;;;;;;;;4987085;28;20495;-81
2022/11/17 01:19:03;;;;;;;10.70;7.07;;;;;;;;;;5000801;28;20033;-81
2022/11/17 01:21:29;;;;;;;12.20;6.70;;;;;;;;;;4983833;28;20038;-82
2022/11/17 01:23:56;;;;;;;12.48;7.07;;;;;;;;;;5000300;28;20380;-82
2022/11/17 01:26:25;;;;;;;9.57;6.78;;;;;;;;;;4995751;28;20042;-82
2022/11/17 01:28:51;;;;;;;7.55;4.95;;;;;;;;;;4993789;28;20045;-82
2022/11/17 01:31:19;;;;;;;4.97;4.57;;;;;;;;;;4992787;28;20485;-82
2022/11/17 01:33:47;;;;;;;5.72;5.13;;;;;;;;;;4995052;28;20041;-81
2022/11/17 01:36:15;;;;;;;7.95;4.47;;;;;;;;;;4995835;28;20041;-81
2022/11/17 01:38:43;;;;;;;4.80;4.13;;;;;;;;;;4999297;28;20534;-81
2022/11/17 01:41:15;;;;;;;6.15;4.53;;;;;;;;;;4993635;28;20037;-80
2022/11/17 01:43:54;;;;;;;8.35;4.40;;;;;;;;;;4981843;28;20041;-80
2022/11/17 01:46:36;;;;;;;5.68;4.85;;;;;;;;;;5000285;28;20018;-80
2022/11/17 01:49:15;;;;;;;6.50;4.95;;;;;;;;;;4990602;28;20064;-80
2022/11/17 01:51:46;;;;;;;4.82;4.13;;;;;;;;;;4993889;28;20034;-80
2022/11/17 01:54:15;;;;;;;6.40;4.55;;;;;;;;;;4981145;28;20026;-80
2022/11/17 01:56:49;;;;;;;12.95;5.15;;;;;;;;;;4993559;28;20045;-80
2022/11/17 01:59:17;;;;;;;11.45;6.00;;;;;;;;;;4995327;28;20037;-80
2022/11/17 02:01:56;;;;;;;7.28;4.60;;;;;;;;;;4988655;28;20046;-80
2022/11/17 02:04:38;;;;;;;6.30;4.57;;;;;;;;;;4977930;28;20049;-80
2022/11/17 02:07:06;;;;;;;6.32;4.95;;;;;;;;;;4993517;28;20522;-80
2022/11/17 02:09:39;;;;;;;5.60;4.65;;;;;;;;;;5003707;28;20033;-81
2022/11/17 02:12:07;;;;;;;9.55;4.60;;;;;;;;;;5002801;28;20029;-80
2022/11/17 02:14:36;;;;;;;7.03;4.82;;;;;;;;;;4997829;28;20049;-80
2022/11/17 02:17:02;;;;;;;7.22;4.90;;;;;;;;;;4998460;28;20038;-80
2022/11/17 02:19:31;;;;;;;6.15;4.50;;;;;;;;;;4992982;28;20042;-80
2022/11/17 02:22:06;;;;;;;8.48;5.45;;;;;;;;;;4990456;28;20037;-80
2022/11/17 02:24:50;;;;;;;10.70;4.78;;;;;;;;;;4991787;28;20041;-81
2022/11/17 02:27:19;;;;;;;5.15;4.65;;;;;;;;;;4999183;28;20037;-81
2022/11/17 02:29:47;;;;;;;6.85;4.60;;;;;;;;;;4990552;28;20037;-81
2022/11/17 02:32:17;;;;;;;5.10;3.75;;;;;;;;;;4998482;28;20045;-81
2022/11/17 02:34:43;;;;;;;5.35;3.47;;;;;;;;;;4993317;28;20038;-81
2022/11/17 02:37:21;;;;;;;8.20;4.60;;;;;;;;;;5000366;28;20566;-80
2022/11/17 02:40:07;;;;;;;6.53;3.45;;;;;;;;;;4997698;28;20038;-80
2022/11/17 02:45:43;;;;;;;4.05;2.83;;;;;;;;;;5005705;28;20037;-80
2022/11/17 02:48:12;;;;;;;5.50;4.45;;;;;;;;;;4994656;28;20033;-80
2022/11/17 02:50:39;;;;;;;5.60;4.15;;;;;;;;;;5000388;28;20483;-81
2022/11/17 02:53:07;;;;;;;6.55;3.78;;;;;;;;;;4999852;28;20037;-80
2022/11/17 02:55:33;;;;;;;5.57;4.22;;;;;;;;;;5004845;28;20462;-80
2022/11/17 02:57:59;;;;;;;4.80;3.47;;;;;;;;;;4999768;28;20472;-80
2022/11/17 03:00:29;;;;;;;4.97;3.90;;;;;;;;;;4993302;28;20038;-80
2022/11/17 03:03:04;;;;;;;6.53;4.93;;;;;;;;;;5000057;28;20029;-80
2022/11/17 03:05:36;;;;;;;8.10;3.50;;;;;;;;;;5000613;28;20034;-80
2022/11/17 03:08:19;;;;;;;9.35;4.82;;;;;;;;;;5001312;28;20034;-81
2022/11/17 03:10:53;;;;;;;5.10;2.65;;;;;;;;;;4978123;28;20110;-81
2022/11/17 03:13:39;;;;;;;7.00;4.35;;;;;;;;;;4978466;28;21157;-81
2022/11/17 03:16:16;;;;;;;5.03;3.53;;;;;;;;;;4997648;28;20033;-81
2022/11/17 03:19:01;;;;;;;4.93;4.38;;;;;;;;;;5003642;28;20038;-81
2022/11/17 03:21:33;;;;;;;5.97;4.22;;;;;;;;;;4994446;28;20488;-78
2022/11/17 03:24:04;;;;;;;6.72;4.78;;;;;;;;;;4996704;28;20030;-78
2022/11/17 03:26:33;;;;;;;6.03;4.55;;;;;;;;;;5000252;28;20033;-79
2022/11/17 03:29:00;;;;;;;4.38;3.88;;;;;;;;;;4982917;28;20030;-79
2022/11/17 03:31:29;;;;;;;7.13;3.42;;;;;;;;;;4996439;28;20104;-79
2022/11/17 03:33:55;;;;;;;5.22;3.72;;;;;;;;;;4998864;28;20029;-79
2022/11/17 03:36:24;;;;;;;6.63;3.90;;;;;;;;;;4979895;28;20036;-79
2022/11/17 03:39:12;;;;;;;4.35;3.85;;;;;;;;;;4997649;28;20050;-79
2022/11/17 03:41:45;;;;;;;14.75;4.55;;;;;;;;;;4999003;28;20034;-79
2022/11/17 03:44:13;;;;;;;7.88;3.58;;;;;;;;;;4996185;28;20045;-79
2022/11/17 03:46:42;;;;;;;6.70;3.85;;;;;;;;;;4992917;28;20031;-79
2022/11/17 03:49:31;;;;;;;4.82;3.50;;;;;;;;;;4997096;28;20030;-79
2022/11/17 03:52:00;;;;;;;7.30;4.63;;;;;;;;;;4991733;28;20033;-79
2022/11/17 03:54:28;;;;;;;9.25;4.03;;;;;;;;;;4997803;28;20038;-79
2022/11/17 03:57:10;;;;;;;5.40;3.75;;;;;;;;;;4995653;28;20030;-79
2022/11/17 03:59:53;;;;;;;5.25;3.25;;;;;;;;;;4984947;28;20033;-79
2022/11/17 04:02:22;;;;;;;6.75;4.55;;;;;;;;;;4997706;28;20088;-80
2022/11/17 04:05:07;;;;;;;5.20;3.30;;;;;;;;;;4995212;28;20367;-79
2022/11/17 04:07:40;;;;;;;4.53;3.13;;;;;;;;;;4979851;28;20022;-80
2022/11/17 04:10:07;;;;;;;4.20;3.05;;;;;;;;;;4990975;28;20030;-81
2022/11/17 04:18:23;;;;;;;3.83;3.40;;;;;;;;;;5002166;28;20041;-80
2022/11/17 04:20:53;;;;;;;4.45;3.22;;;;;;;;;;5004129;28;20423;-80
2022/11/17 04:23:22;;;;;;;4.68;3.85;;;;;;;;;;4990017;28;20366;-80
2022/11/17 04:28:38;;;;;;;9.45;4.38;;;;;;;;;;4989004;28;20033;-80
2022/11/17 04:31:08;;;;;;;7.82;3.03;;;;;;;;;;5002340;28;20044;-80
2022/11/17 04:33:37;;;;;;;6.65;3.63;;;;;;;;;;4999600;28;20033;-80
2022/11/17 04:36:05;;;;;;;5.53;4.13;;;;;;;;;;4997361;28;20026;-79
2022/11/17 04:38:31;;;;;;;19.98;5.05;;;;;;;;;;4995374;28;20037;-80
2022/11/17 04:43:45;;;;;;;6.80;3.97;;;;;;;;;;4997685;28;20034;-80
2022/11/17 04:46:11;;;;;;;6.95;4.03;;;;;;;;;;4988750;28;20153;-80
2022/11/17 04:48:37;;;;;;;7.35;4.50;;;;;;;;;;4999555;28;20031;-79
2022/11/17 04:51:03;;;;;;;6.15;3.63;;;;;;;;;;5000869;28;20042;-79
2022/11/17 04:53:29;;;;;;;3.40;2.70;;;;;;;;;;5000085;28;20029;-79
2022/11/17 04:55:58;;;;;;;5.07;4.20;;;;;;;;;;4991187;28;20423;-79
2022/11/17 04:58:24;;;;;;;4.32;3.03;;;;;;;;;;4993179;28;20045;-80
2022/11/17 05:00:52;;;;;;;6.72;4.15;;;;;;;;;;4996280;28;20037;-79
2022/11/17 05:03:20;;;;;;;5.38;3.80;;;;;;;;;;4994702;28;20034;-80
2022/11/17 05:05:47;;;;;;;3.35;3.00;;;;;;;;;;4999314;28;20026;-79
2022/11/17 05:08:13;;;;;;;5.82;3.97;;;;;;;;;;4997556;28;20037;-79
2022/11/17 05:13:30;;;;;;;6.63;4.20;;;;;;;;;;4999643;28;20098;-79
2022/11/17 05:18:45;;;;;;;4.40;2.92;;;;;;;;;;4993990;28;20026;-79
2022/11/17 05:21:11;;;;;;;4.07;3.13;;;;;;;;;;4978789;28;20038;-79
2022/11/17 05:23:55;;;;;;;5.63;3.35;;;;;;;;;;4982226;28;20038;-80
2022/11/17 05:26:27;;;;;;;5.70;3.85;;;;;;;;;;4994866;28;20030;-79
2022/11/17 05:28:56;;;;;;;4.60;3.78;;;;;;;;;;4974698;28;20402;-79
2022/11/17 05:31:25;;;;;;;5.32;3.88;;;;;;;;;;4995259;28;20395;-80
2022/11/17 05:33:54;;;;;;;5.20;3.63;;;;;;;;;;4985956;28;20488;-80
2022/11/17 05:36:20;;;;;;;5.70;4.15;;;;;;;;;;5001107;28;20045;-80
2022/11/17 05:38:46;;;;;;;8.10;4.80;;;;;;;;;;4984439;28;20041;-79
2022/11/17 05:41:12;;;;;;;4.72;3.83;;;;;;;;;;4980275;28;20034;-80
2022/11/17 05:43:38;;;;;;;4.38;3.92;;;;;;;;;;4979057;28;20042;-80
2022/11/17 05:46:07;;;;;;;4.55;3.45;;;;;;;;;;4979768;28;20066;-80
2022/11/17 05:48:33;;;;;;;4.93;3.53;;;;;;;;;;5000239;28;20029;-79
2022/11/17 05:51:01;;;;;;;4.07;3.67;;;;;;;;;;4994265;28;20026;-78
2022/11/17 05:53:28;;;;;;;7.25;4.10;;;;;;;;;;5002504;28;20034;-79
2022/11/17 05:56:11;;;;;;;8.40;4.60;;;;;;;;;;4982014;28;20038;-80
2022/11/17 05:58:39;;;;;;;5.57;3.97;;;;;;;;;;4991049;28;20030;-80
2022/11/17 06:01:05;;;;;;;5.30;4.45;;;;;;;;;;4982190;28;20487;-80
2022/11/17 06:03:35;;;;;;;4.28;3.45;;;;;;;;;;4997356;28;20033;-80
2022/11/17 06:06:00;;;;;;;7.25;5.32;;;;;;;;;;4998509;28;20026;-80
2022/11/17 06:08:29;;;;;;;5.78;4.75;;;;;;;;;;4984942;28;20236;-79
2022/11/17 06:10:55;;;;;;;9.45;4.65;;;;;;;;;;4982682;28;20026;-79
2022/11/17 06:13:27;;;;;;;8.10;5.30;;;;;;;;;;4973426;28;20045;-79
2022/11/17 06:15:54;;;;;;;18.15;11.73;;;;;;;;;;4939842;28;20538;-80
2022/11/17 06:18:24;;;;;;;15.75;10.65;;;;;;;;;;4985575;28;20399;-80
2022/11/17 06:20:52;;;;;;;19.00;14.45;;;;;;;;;;4951342;28;20095;-80
2022/11/17 06:23:24;;;;;;;26.33;18.38;;;;;;;;;;4988241;28;20631;-80
2022/11/17 06:25:50;;;;;;;15.35;11.50;;;;;;;;;;4985920;28;20052;-79
2022/11/17 06:28:17;;;;;;;15.15;11.02;;;;;;;;;;4990738;28;20117;-80
2022/11/17 06:30:46;;;;;;;10.77;7.85;;;;;;;;;;4976573;28;20030;-80
2022/11/17 06:33:15;;;;;;;6.43;5.47;;;;;;;;;;4989977;28;20026;-80
2022/11/17 06:35:46;;;;;;;10.63;7.53;;;;;;;;;;4988836;28;20046;-80
2022/11/17 06:38:12;;;;;;;8.82;6.72;;;;;;;;;;4973517;28;20029;-80
2022/11/17 06:40:38;;;;;;;8.55;6.32;;;;;;;;;;4969137;28;20605;-78
2022/11/17 06:43:08;;;;;;;7.90;5.72;;;;;;;;;;4982100;28;20034;-80
2022/11/17 06:45:37;;;;;;;8.55;5.40;;;;;;;;;;4981821;28;20046;-80
2022/11/17 06:48:06;;;;;;;7.30;5.22;;;;;;;;;;4995272;28;20036;-79
2022/11/17 06:50:34;;;;;;;6.45;4.95;;;;;;;;;;5000381;28;20030;-80
2022/11/17 06:53:04;;;;;;;7.03;6.32;;;;;;;;;;4972951;28;20026;-80
2022/11/17 06:55:30;;;;;;;9.38;5.45;;;;;;;;;;5019786;22;20053;-76
2022/11/17 06:58:16;;;;;;;7.55;5.20;;;;;;;;;;4982229;28;20034;-76
2022/11/17 07:00:47;;;;;;;17.52;4.47;;;;;;;;;;5003604;28;20029;-75
2022/11/17 07:03:13;;;;;;;4.18;3.88;;;;;;;;;;4976367;28;20399;-76
2022/11/17 07:05:41;;;;;;;5.63;4.65;;;;;;;;;;4988798;28;20038;-76
2022/11/17 07:08:10;;;;;;;4.60;3.97;;;;;;;;;;4983831;28;20430;-76
2022/11/17 07:10:36;;;;;;;4.13;3.80;;;;;;;;;;5004719;28;20033;-76
2022/11/17 07:13:04;;;;;;;5.97;4.55;;;;;;;;;;5006291;28;20038;-76
2022/11/17 07:15:30;;;;;;;8.32;4.63;;;;;;;;;;4990510;28;20049;-76
2022/11/17 07:17:58;;;;;;;7.45;4.03;;;;;;;;;;5001363;28;20030;-76
2022/11/17 07:20:24;;;;;;;5.90;5.13;;;;;;;;;;5000269;28;20431;-76
2022/11/17 07:22:50;;;;;;;5.22;4.28;;;;;;;;;;4978841;28;20025;-76
2022/11/17 07:25:20;;;;;;;5.35;4.55;;;;;;;;;;5008009;28;20032;-75
2022/11/17 07:27:46;;;;;;;8.35;5.15;;;;;;;;;;5007131;28;20030;-75
2022/11/17 07:30:14;;;;;;;6.60;3.83;;;;;;;;;;5005233;28;20025;-74
2022/11/17 07:32:40;;;;;;;6.40;4.47;;;;;;;;;;4990814;28;20480;-75
2022/11/17 07:35:06;;;;;;;9.30;5.03;;;;;;;;;;5003741;28;20029;-75
2022/11/17 07:37:34;;;;;;;5.03;4.57;;;;;;;;;;5000758;28;20407;-75
2022/11/17 07:40:05;;;;;;;7.32;4.40;;;;;;;;;;5005611;28;20038;-75
2022/11/17 07:42:34;;;;;;;5.28;4.78;;;;;;;;;;5008190;28;20436;-75
2022/11/17 07:45:02;;;;;;;6.40;5.13;;;;;;;;;;5004570;28;20408;-75
2022/11/17 07:47:28;;;;;;;5.32;4.63;;;;;;;;;;4988595;28;20033;-75
2022/11/17 07:49:54;;;;;;;5.45;4.40;;;;;;;;;;4979680;28;20038;-75
2022/11/17 07:52:22;;;;;;;10.00;4.32;;;;;;;;;;5005885;28;20464;-75
2022/11/17 07:54:48;;;;;;;5.07;4.40;;;;;;;;;;5009072;28;20038;-74
2022/11/17 07:57:16;;;;;;;6.03;4.85;;;;;;;;;;5008723;28;20068;-74
2022/11/17 07:59:42;;;;;;;6.00;4.90;;;;;;;;;;4990856;28;20053;-75
2022/11/17 08:02:11;;;;;;;5.00;4.10;;;;;;;;;;5008454;28;20026;-75
2022/11/17 08:04:39;;;;;;;4.75;4.28;;;;;;;;;;4992497;28;20034;-75
2022/11/17 08:07:05;;;;;;;5.15;4.45;;;;;;;;;;5006741;28;20026;-75
2022/11/17 08:09:33;;;;;;;5.55;3.75;;;;;;;;;;5003574;28;20082;-76
2022/11/17 08:11:59;;;;;;;5.00;4.47;;;;;;;;;;5011686;28;20026;-76
2022/11/17 08:14:28;;;;;;;5.13;4.15;;;;;;;;;;5003639;28;20046;-75
2022/11/17 08:16:59;;;;;;;14.07;7.72;;;;;;;;;;5011611;28;20049;-75
2022/11/17 08:19:27;;;;;;;12.68;7.95;;;;;;;;;;5011795;28;20029;-75
2022/11/17 08:21:53;;;;;;;15.32;9.63;;;;;;;;;;5010282;28;20026;-75
2022/11/17 08:24:19;;;;;;;17.00;9.77;;;;;;;;;;4990969;28;20406;-75
2022/11/17 08:26:47;;;;;;;8.95;7.82;;;;;;;;;;5011166;28;20089;-75
2022/11/17 08:29:13;;;;;;;11.45;8.52;;;;;;;;;;5006631;28;20022;-75
2022/11/17 08:31:45;;;;;;;11.38;9.98;;;;;;;;;;5012737;28;20116;-75
2022/11/17 08:34:13;;;;;;;12.70;9.40;;;;;;;;;;5012184;28;20025;-75
2022/11/17 08:36:41;;;;;;;9.30;6.25;;;;;;;;;;4982320;28;20042;-76
2022/11/17 08:39:07;;;;;;;7.82;6.43;;;;;;;;;;5009556;28;20037;-75
2022/11/17 08:41:33;;;;;;;7.93;7.13;;;;;;;;;;5007484;28;20763;-75
2022/11/17 08:43:59;;;;;;;9.85;7.60;;;;;;;;;;4992623;28;20044;-75
2022/11/17 08:46:25;;;;;;;9.50;7.43;;;;;;;;;;5005533;28;20034;-76
2022/11/17 08:48:51;;;;;;;11.13;8.50;;;;;;;;;;4998867;28;20391;-76
2022/11/17 08:51:19;;;;;;;13.07;8.10;;;;;;;;;;5011592;28;20033;-76
2022/11/17 08:53:45;;;;;;;9.23;6.72;;;;;;;;;;5007489;28;21690;-76
2022/11/17 08:56:11;;;;;;;10.60;7.85;;;;;;;;;;5009816;28;20038;-76
2022/11/17 08:58:43;;;;;;;7.50;5.32;;;;;;;;;;4991021;28;20041;-76
2022/11/17 09:01:10;;;;;;;9.90;6.72;;;;;;;;;;4996065;28;20037;-76
2022/11/17 09:03:36;;;;;;;5.88;4.25;;;;;;;;;;4998598;28;20404;-76
2022/11/17 09:06:02;;;;;;;5.03;4.53;;;;;;;;;;5008214;28;20042;-76
2022/11/17 09:08:31;;;;;;;6.13;3.72;;;;;;;;;;4986416;28;20141;-76
2022/11/17 09:11:04;;;;;;;4.95;4.38;;;;;;;;;;4993033;28;20479;-76
2022/11/17 09:13:31;;;;;;;6.63;4.07;;;;;;;;;;5008517;28;20037;-76
2022/11/17 09:16:00;;;;;;;7.97;5.88;;;;;;;;;;4979634;28;20034;-76
2022/11/17 09:18:28;;;;;;;9.70;5.63;;;;;;;;;;5011141;28;20439;-76
2022/11/17 09:21:00;;;;;;;8.43;5.97;;;;;;;;;;5009018;28;20045;-76
2022/11/17 09:23:30;;;;;;;9.70;6.00;;;;;;;;;;5003073;28;20065;-76
2022/11/17 09:25:57;;;;;;;7.97;5.85;;;;;;;;;;5010597;28;20026;-76
2022/11/17 09:28:26;;;;;;;10.25;7.28;;;;;;;;;;4988510;28;20037;-74
2022/11/17 09:30:52;;;;;;;7.45;5.50;;;;;;;;;;4999982;28;20037;-74
2022/11/17 09:33:18;;;;;;;7.07;5.13;;;;;;;;;;4972735;28;20026;-74
2022/11/17 09:35:46;;;;;;;3.53;2.25;;;;;;;;;;5009047;28;20042;-75
2022/11/17 09:38:12;;;;;;;4.25;2.38;;;;;;;;;;5001948;28;20018;-74
2022/11/17 09:40:39;;;;;;;7.43;3.53;;;;;;;;;;5006939;28;20064;-74
2022/11/17 09:43:30;;;;;;;3.38;1.67;;;;;;;;;;4994667;28;20049;-75
2022/11/17 09:46:14;;;;;;;8.38;2.38;;;;;;;;;;4980631;28;20121;-75
2022/11/17 09:48:49;;;;;;;4.38;1.67;;;;;;;;;;5008415;28;20034;-75
2022/11/17 09:51:19;;;;;;;3.70;1.33;;;;;;;;;;5006055;28;20116;-75
2022/11/17 09:53:50;;;;;;;14.50;1.75;;;;;;;;;;4999033;28;20034;-75
2022/11/17 09:56:18;;;;;;;3.90;1.98;;;;;;;;;;5011705;28;20472;-75
2022/11/17 09:58:49;;;;;;;4.30;2.33;;;;;;;;;;4995809;28;20399;-75
2022/11/17 10:01:16;;;;;;;15.02;2.72;;;;;;;;;;5021896;28;20033;-75
2022/11/17 10:03:43;;;;;;;5.93;2.03;;;;;;;;;;5008449;28;20034;-74
2022/11/17 10:06:17;;;;;;;4.78;2.08;;;;;;;;;;4995318;28;20038;-74
2022/11/17 10:08:54;;;;;;;5.80;2.20;;;;;;;;;;5008305;28;20022;-74
2022/11/17 10:11:32;;;;;;;4.50;1.63;;;;;;;;;;5008988;28;20052;-75
2022/11/17 10:14:06;;;;;;;2.63;1.23;;;;;;;;;;5002105;28;20030;-74
2022/11/17 10:16:35;;;;;;;5.60;1.83;;;;;;;;;;4989498;28;20034;-75
2022/11/17 10:19:07;;;;;;;2.55;1.50;;;;;;;;;;5009688;28;20047;-74
2022/11/17 10:21:34;;;;;;;9.75;2.40;;;;;;;;;;4972393;28;20057;-74
2022/11/17 10:24:00;;;;;;;5.60;2.03;;;;;;;;;;5006447;28;20033;-75
2022/11/17 10:26:26;;;;;;;5.63;2.90;;;;;;;;;;4990909;28;20038;-75
2022/11/17 10:29:10;;;;;;;7.50;4.07;;;;;;;;;;5005373;28;20025;-75
2022/11/17 10:31:39;;;;;;;5.20;3.25;;;;;;;;;;5005414;28;20034;-75
2022/11/17 10:34:08;;;;;;;7.57;4.05;;;;;;;;;;5008511;28;20033;-76
2022/11/17 10:36:43;;;;;;;10.40;4.90;;;;;;;;;;5005253;28;20029;-76
2022/11/17 10:39:28;;;;;;;6.78;2.72;;;;;;;;;;5003987;28;20037;-76
2022/11/17 10:41:54;;;;;;;9.05;7.95;;;;;;;;;;5008869;28;20037;-76
2022/11/17 10:44:23;;;;;;;8.20;3.88;;;;;;;;;;4990305;28;20395;-75
2022/11/17 10:46:56;;;;;;;6.28;2.95;;;;;;;;;;4993752;28;20030;-74
2022/11/17 10:49:26;;;;;;;6.60;3.20;;;;;;;;;;4992713;28;20511;-74
2022/11/17 10:52:09;;;;;;;4.20;2.90;;;;;;;;;;5003732;28;20049;-75
2022/11/17 10:54:36;;;;;;;6.20;2.05;;;;;;;;;;4985500;28;20037;-74
2022/11/17 10:57:07;;;;;;;5.47;1.83;;;;;;;;;;4986132;28;20034;-75
2022/11/17 10:59:41;;;;;;;3.10;2.22;;;;;;;;;;4999905;28;20045;-75
2022/11/17 11:02:29;;;;;;;3.65;1.48;;;;;;;;;;4990111;28;20036;-75
2022/11/17 11:05:07;;;;;;;4.07;0.90;;;;;;;;;;4991156;28;20049;-76
2022/11/17 11:07:34;;;;;;;7.88;4.60;;;;;;;;;;5004236;28;20380;-76
2022/11/17 11:10:03;;;;;;;3.25;2.45;;;;;;;;;;4957954;28;20045;-76
2022/11/17 11:12:35;;;;;;;5.65;2.47;;;;;;;;;;5006582;28;20033;-76
2022/11/17 11:15:07;;;;;;;9.23;3.85;;;;;;;;;;5006921;28;20468;-75
2022/11/17 11:17:40;;;;;;;11.70;6.07;;;;;;;;;;5002798;28;20029;-75
2022/11/17 11:20:11;;;;;;;21.67;6.50;;;;;;;;;;5005575;28;20384;-75
2022/11/17 11:22:46;;;;;;;5.60;3.22;;;;;;;;;;5007022;28;20032;-76
2022/11/17 11:25:14;;;;;;;11.45;6.25;;;;;;;;;;5002103;28;20041;-75
2022/11/17 11:27:48;;;;;;;11.90;9.35;;;;;;;;;;4989872;28;20041;-75
2022/11/17 11:30:15;;;;;;;4.13;2.35;;;;;;;;;;4988335;28;20038;-75
2022/11/17 11:32:44;;;;;;;2.67;1.52;;;;;;;;;;4989137;28;20037;-75
2022/11/17 11:35:22;;;;;;;6.03;1.80;;;;;;;;;;4992601;28;20476;-76
2022/11/17 11:38:02;;;;;;;4.13;2.65;;;;;;;;;;5010338;28;20578;-75
2022/11/17 11:40:30;;;;;;;4.03;2.47;;;;;;;;;;5008949;28;20042;-75
2022/11/17 11:43:07;;;;;;;1.73;1.42;;;;;;;;;;4976191;28;20381;-75
2022/11/17 11:45:33;;;;;;;7.25;4.40;;;;;;;;;;5003124;28;20041;-75
2022/11/17 11:48:06;;;;;;;10.95;3.10;;;;;;;;;;4970801;28;20111;-75
2022/11/17 11:50:49;;;;;;;3.03;1.40;;;;;;;;;;4990830;28;20034;-76
2022/11/17 11:53:40;;;;;;;7.32;2.42;;;;;;;;;;4997262;28;20312;-75
2022/11/17 11:56:14;;;;;;;4.68;2.67;;;;;;;;;;5004228;28;20052;-75
2022/11/17 11:58:58;;;;;;;5.18;2.60;;;;;;;;;;4997826;28;20045;-75
2022/11/17 12:01:25;;;;;;;3.92;2.03;;;;;;;;;;4993243;28;20492;-75
2022/11/17 12:03:50;;;;;;;3.58;1.75;;;;;;;;;;5011349;28;20030;-75
2022/11/17 12:06:42;;;;;;;3.03;1.70;;;;;;;;;;5008928;28;20030;-75
2022/11/17 12:09:16;;;;;;;2.40;1.25;;;;;;;;;;4969243;28;20030;-76
2022/11/17 12:12:03;;;;;;;6.90;2.15;;;;;;;;;;5001768;28;20025;-76
2022/11/17 12:14:30;;;;;;;7.88;3.58;;;;;;;;;;5011529;28;20472;-76
2022/11/17 12:17:01;;;;;;;4.15;1.73;;;;;;;;;;5008897;28;20530;-75
2022/11/17 12:19:48;;;;;;;5.13;1.98;;;;;;;;;;5011219;28;20018;-76
2022/11/17 12:22:32;;;;;;;13.23;5.97;;;;;;;;;;5002743;28;20027;-76
2022/11/17 12:25:02;;;;;;;4.82;2.13;;;;;;;;;;5005496;28;20037;-75
2022/11/17 12:27:33;;;;;;;4.03;1.50;;;;;;;;;;5008690;28;20486;-75
2022/11/17 12:30:02;;;;;;;5.15;1.70;;;;;;;;;;5003148;28;20021;-75
2022/11/17 12:32:45;;;;;;;3.92;1.98;;;;;;;;;;4997529;28;20034;-75
2022/11/17 12:35:37;;;;;;;3.25;2.55;;;;;;;;;;5007993;28;20041;-74
2022/11/17 12:38:15;;;;;;;6.38;2.47;;;;;;;;;;4996862;28;20054;-75
2022/11/17 12:40:44;;;;;;;3.72;0.93;;;;;;;;;;5013585;28;20041;-75
2022/11/17 12:43:23;;;;;;;2.97;1.48;;;;;;;;;;5013698;28;20416;-75
2022/11/17 12:45:56;;;;;;;4.72;1.80;;;;;;;;;;5012971;28;20053;-75
2022/11/17 12:48:30;;;;;;;3.90;1.63;;;;;;;;;;5013002;28;20502;-75
2022/11/17 12:50:56;;;;;;;5.97;2.28;;;;;;;;;;5002582;28;20030;-76
2022/11/17 12:53:22;;;;;;;15.05;3.42;;;;;;;;;;5028978;28;20037;-76
2022/11/17 12:56:08;;;;;;;11.30;3.53;;;;;;;;;;5028777;22;20164;-82
2022/11/17 12:58:40;;;;;;;7.88;2.83;;;;;;;;;;4997777;28;20044;-82
2022/11/17 13:01:15;;;;;;;11.40;3.75;;;;;;;;;;5027531;28;20025;-82
2022/11/17 13:03:46;;;;;;;5.63;2.20;;;;;;;;;;5034358;28;20044;-82
2022/11/17 13:06:16;;;;;;;5.78;1.95;;;;;;;;;;5015769;28;20112;-82
2022/11/17 13:09:00;;;;;;;6.75;2.17;;;;;;;;;;5019130;28;20033;-81
2022/11/17 13:11:28;;;;;;;2.88;1.77;;;;;;;;;;5018515;28;20025;-83
2022/11/17 13:14:08;;;;;;;5.13;1.85;;;;;;;;;;5017227;28;20040;-83
2022/11/17 13:16:37;;;;;;;4.57;2.10;;;;;;;;;;5020477;28;20427;-82
2022/11/17 13:19:25;;;;;;;4.50;2.30;;;;;;;;;;5033689;28;20056;-82
2022/11/17 13:21:56;;;;;;;5.30;1.48;;;;;;;;;;5027227;28;20708;-81
2022/11/17 13:24:37;;;;;;;6.53;1.77;;;;;;;;;;5028393;28;20036;-80
2022/11/17 13:27:06;;;;;;;3.00;2.20;;;;;;;;;;5019738;28;20029;-81
2022/11/17 13:29:32;;;;;;;4.70;2.08;;;;;;;;;;5030663;28;20036;-80
2022/11/17 13:32:22;;;;;;;8.13;1.92;;;;;;;;;;5029349;28;20025;-81
2022/11/17 13:34:59;;;;;;;4.20;1.50;;;;;;;;;;5032073;28;20033;-81
2022/11/17 13:37:28;;;;;;;4.93;1.83;;;;;;;;;;5029428;28;20361;-81
2022/11/17 13:40:00;;;;;;;3.47;2.20;;;;;;;;;;5024239;28;20022;-80
2022/11/17 13:42:32;;;;;;;2.75;0.90;;;;;;;;;;5024278;28;20030;-79
2022/11/17 13:45:05;;;;;;;2.70;1.08;;;;;;;;;;5023120;28;20383;-79
2022/11/17 13:47:37;;;;;;;3.13;0.77;;;;;;;;;;5028140;28;20032;-80
2022/11/17 13:50:21;;;;;;;2.97;1.70;;;;;;;;;;5019153;28;20017;-79
2022/11/17 13:53:09;;;;;;;3.20;1.25;;;;;;;;;;5031860;28;20052;-80
2022/11/17 13:55:36;;;;;;;5.97;0.82;;;;;;;;;;5019938;28;20048;-80
2022/11/17 13:58:04;;;;;;;2.88;1.15;;;;;;;;;;5031797;28;20403;-80
2022/11/17 14:00:34;;;;;;;3.05;1.00;;;;;;;;;;5010640;28;20029;-80
2022/11/17 14:03:04;;;;;;;1.92;1.25;;;;;;;;;;5006526;28;20503;-80
2022/11/17 14:05:31;;;;;;;2.35;0.95;;;;;;;;;;4999716;28;20511;-80
2022/11/17 14:08:10;;;;;;;2.58;1.13;;;;;;;;;;5026903;28;20033;-80
2022/11/17 14:10:37;;;;;;;1.25;0.63;;;;;;;;;;5015534;28;20030;-80
2022/11/17 14:13:05;;;;;;;2.58;0.98;;;;;;;;;;5024623;28;20028;-80
2022/11/17 14:15:35;;;;;;;1.02;0.80;;;;;;;;;;5016192;28;20033;-80
2022/11/17 14:18:06;;;;;;;1.63;1.13;;;;;;;;;;5023777;28;20026;-79
2022/11/17 14:20:33;;;;;;;8.65;1.33;;;;;;;;;;5021856;28;20033;-79
2022/11/17 14:23:12;;;;;;;4.20;1.35;;;;;;;;;;5010434;28;20044;-78
2022/11/17 14:25:39;;;;;;;5.97;1.38;;;;;;;;;;5008708;28;20403;-80
2022/11/17 14:28:12;;;;;;;6.43;3.92;;;;;;;;;;5027022;28;20021;-80
2022/11/17 14:30:40;;;;;;;4.72;2.13;;;;;;;;;;5029761;28;20033;-80
2022/11/17 14:33:06;;;;;;;2.92;2.10;;;;;;;;;;5002651;28;20025;-80
2022/11/17 14:35:32;;;;;;;2.00;1.80;;;;;;;;;;5027969;28;20025;-79
2022/11/17 14:38:00;;;;;;;2.30;1.48;;;;;;;;;;5008516;28;20029;-79
2022/11/17 14:40:31;;;;;;;4.00;1.25;;;;;;;;;;5018067;28;20399;-80
2022/11/17 14:42:57;;;;;;;3.15;1.50;;;;;;;;;;5021642;28;20037;-79
2022/11/17 14:45:25;;;;;;;8.15;2.72;;;;;;;;;;5022046;28;20041;-80
2022/11/17 14:47:51;;;;;;;11.32;2.75;;;;;;;;;;5026778;28;20025;-80
2022/11/17 14:50:20;;;;;;;7.25;2.28;;;;;;;;;;5010844;28;20033;-80
2022/11/17 14:52:48;;;;;;;9.15;3.53;;;;;;;;;;5029857;28;20044;-79
2022/11/17 14:55:17;;;;;;;5.88;3.17;;;;;;;;;;5008640;28;20037;-80
2022/11/17 14:57:45;;;;;;;4.10;3.20;;;;;;;;;;5022894;28;20041;-79
2022/11/17 15:00:12;;;;;;;7.93;5.07;;;;;;;;;;5020232;28;20503;-79
2022/11/17 15:02:43;;;;;;;4.40;3.97;;;;;;;;;;5004692;28;20479;-79
2022/11/17 15:05:09;;;;;;;5.03;3.85;;;;;;;;;;5008192;28;20037;-80
2022/11/17 15:07:37;;;;;;;6.90;3.22;;;;;;;;;;5011807;28;20645;-80
2022/11/17 15:10:06;;;;;;;10.18;3.50;;;;;;;;;;5015579;28;20022;-80
2022/11/17 15:12:33;;;;;;;4.22;2.72;;;;;;;;;;5008477;28;20037;-80
2022/11/17 15:14:59;;;;;;;3.58;3.10;;;;;;;;;;5014942;28;20029;-79
2022/11/17 15:17:27;;;;;;;4.30;3.30;;;;;;;;;;5020611;28;20034;-79
2022/11/17 15:19:57;;;;;;;2.97;2.65;;;;;;;;;;5021020;28;20036;-80
2022/11/17 15:22:25;;;;;;;4.40;2.08;;;;;;;;;;5009191;28;20029;-78
2022/11/17 15:24:54;;;;;;;8.77;4.30;;;;;;;;;;5034842;28;20041;-78
2022/11/17 15:27:22;;;;;;;6.43;3.00;;;;;;;;;;5024319;28;20038;-78
2022/11/17 15:29:50;;;;;;;3.53;2.85;;;;;;;;;;5030650;28;20041;-78